Time;durP1;ratioP1;P1;durP2;ratioP2;P2;SDS_P1;SDS_P2;PMS_P1;PMS_P2;Temp;Humidity;BMP_temperature;BMP_pressure;BME280_temperature;BME280_humidity;BME280_pressure;Samples;Min_cycle;Max_cycle;Signal;HPM_P1;HPM_P2
2022/07/16 00:03:09;;;;;;;4.03;1.92;;;;;;;15.12;100.00;101883.91;5048078;28;20082;-67
2022/07/16 00:05:35;;;;;;;2.10;1.08;;;;;;;15.07;100.00;101870.28;5043622;28;20111;-67
2022/07/16 00:08:01;;;;;;;2.97;0.95;;;;;;;15.22;100.00;101894.44;5043313;28;21205;-68
2022/07/16 00:10:26;;;;;;;1.63;1.02;;;;;;;15.28;100.00;101901.00;5036293;28;20162;-68
2022/07/16 00:12:52;;;;;;;1.90;0.77;;;;;;;15.32;100.00;101910.34;5041085;28;20033;-68
2022/07/16 00:15:17;;;;;;;3.22;1.00;;;;;;;15.32;100.00;101911.16;5042541;28;20032;-69
2022/07/16 00:17:43;;;;;;;2.75;1.25;;;;;;;15.29;100.00;101916.81;5034453;28;20397;-68
2022/07/16 00:20:08;;;;;;;1.90;1.30;;;;;;;15.23;100.00;101893.47;5045757;28;20028;-67
2022/07/16 00:22:34;;;;;;;0.70;0.65;;;;;;;15.23;100.00;101902.28;5047829;28;20044;-67
2022/07/16 00:24:59;;;;;;;0.52;0.22;;;;;;;15.12;100.00;101899.88;5045611;28;20021;-67
2022/07/16 00:27:25;;;;;;;0.77;0.40;;;;;;;15.16;100.00;101901.25;5039982;28;20028;-67
2022/07/16 00:29:50;;;;;;;4.72;1.02;;;;;;;15.21;100.00;101922.03;5041690;28;20082;-67
2022/07/16 00:32:16;;;;;;;2.38;0.57;;;;;;;15.23;100.00;101925.38;5045929;28;20312;-67
2022/07/16 00:34:41;;;;;;;0.47;0.35;;;;;;;15.22;100.00;101926.38;5038343;28;20059;-67
2022/07/16 00:37:07;;;;;;;0.50;0.20;;;;;;;15.24;100.00;101924.38;5044058;28;20249;-67
2022/07/16 00:39:32;;;;;;;2.10;0.28;;;;;;;15.26;100.00;101929.56;5036952;28;20124;-67
2022/07/16 00:41:58;;;;;;;1.00;0.52;;;;;;;15.27;100.00;101923.28;5043961;28;20021;-67
2022/07/16 00:44:23;;;;;;;3.15;0.60;;;;;;;15.23;100.00;101923.56;5037975;28;20034;-67
2022/07/16 00:46:50;;;;;;;0.77;0.43;;;;;;;15.25;100.00;101914.59;5041154;28;20029;-67
2022/07/16 00:49:16;;;;;;;6.28;1.20;;;;;;;15.28;100.00;101908.97;5038097;28;20523;-67
2022/07/16 00:51:52;;;;;;;1.95;0.45;;;;;;;15.28;100.00;101914.28;5035290;28;20025;-67
2022/07/16 00:54:19;;;;;;;1.88;0.40;;;;;;;15.14;100.00;101886.44;5037049;28;20473;-68
2022/07/16 00:56:45;;;;;;;0.47;0.35;;;;;;;15.31;100.00;101908.66;5041948;28;20588;-67
2022/07/16 00:59:11;;;;;;;0.20;0.10;;;;;;;15.35;100.00;101910.00;5043042;28;20055;-67
2022/07/16 01:01:37;;;;;;;1.13;0.50;;;;;;;15.37;100.00;101924.84;5044485;28;20037;-67
2022/07/16 01:04:06;;;;;;;0.30;0.20;;;;;;;15.32;100.00;101905.84;5050541;28;20029;-69
2022/07/16 01:06:32;;;;;;;0.40;0.30;;;;;;;15.39;100.00;101914.84;5050266;28;20033;-69
2022/07/16 01:08:59;;;;;;;0.43;0.20;;;;;;;15.40;100.00;101923.69;5048395;28;20512;-69
2022/07/16 01:11:25;;;;;;;0.38;0.20;;;;;;;15.43;100.00;101924.19;5041947;28;20448;-69
2022/07/16 01:13:51;;;;;;;0.52;0.30;;;;;;;15.49;100.00;101914.78;5048785;28;20063;-69
2022/07/16 01:16:18;;;;;;;0.55;0.45;;;;;;;15.50;100.00;101921.75;5045785;28;20552;-69
2022/07/16 01:18:45;;;;;;;2.92;0.40;;;;;;;15.53;100.00;101918.78;5048183;28;20033;-69
2022/07/16 01:21:11;;;;;;;1.50;0.32;;;;;;;15.39;100.00;101890.09;5045486;28;20029;-69
2022/07/16 01:23:36;;;;;;;0.32;0.17;;;;;;;15.51;100.00;101917.28;5042823;28;20040;-69
2022/07/16 01:26:02;;;;;;;0.43;0.30;;;;;;;15.49;100.00;101913.94;5044670;28;20022;-68
2022/07/16 01:28:28;;;;;;;2.35;0.40;;;;;;;15.44;100.00;101919.75;5055407;28;20033;-68
2022/07/16 01:30:54;;;;;;;0.22;0.20;;;;;;;15.41;100.00;101920.03;5047917;28;20100;-68
2022/07/16 01:33:33;;;;;;;0.70;0.22;;;;;;;15.37;100.00;101924.84;5042166;28;20116;-69
2022/07/16 01:36:02;;;;;;;0.35;0.22;;;;;;;15.31;100.00;101909.50;5045241;28;20064;-69
2022/07/16 01:38:28;;;;;;;3.28;0.30;;;;;;;15.34;100.00;101916.34;5049579;28;20025;-69
2022/07/16 01:40:54;;;;;;;2.03;0.32;;;;;;;15.31;100.00;101914.81;5050469;28;20382;-69
2022/07/16 01:43:22;;;;;;;3.30;0.28;;;;;;;15.20;100.00;101918.56;5050333;28;20382;-69
2022/07/16 01:45:48;;;;;;;1.15;0.52;;;;;;;15.16;100.00;101917.19;5043019;28;20116;-69
2022/07/16 01:48:14;;;;;;;1.55;0.73;;;;;;;15.13;100.00;101916.66;5050110;28;20018;-69
2022/07/16 01:50:42;;;;;;;0.77;0.40;;;;;;;15.02;100.00;101925.69;5047561;28;20083;-69
2022/07/16 01:53:08;;;;;;;0.50;0.50;;;;;;;14.91;100.00;101921.44;5043636;28;20060;-69
2022/07/16 01:55:34;;;;;;;1.95;0.50;;;;;;;14.89;100.00;101925.25;5032456;28;20029;-69
2022/07/16 01:58:00;;;;;;;2.17;0.40;;;;;;;14.79;100.00;101926.16;5045516;28;20029;-69
2022/07/16 02:00:26;;;;;;;0.20;0.20;;;;;;;14.72;100.00;101930.44;5050208;28;20072;-69
2022/07/16 02:02:52;;;;;;;3.60;0.50;;;;;;;14.68;100.00;101929.06;5034096;28;20037;-69
2022/07/16 02:05:17;;;;;;;0.73;0.40;;;;;;;14.63;100.00;101933.97;5044909;28;20092;-69
2022/07/16 02:07:42;;;;;;;0.28;0.25;;;;;;;14.57;100.00;101937.25;5044201;28;20021;-69
2022/07/16 02:10:09;;;;;;;1.60;0.57;;;;;;;14.48;100.00;101924.81;5045240;28;20021;-69
2022/07/16 02:12:34;;;;;;;0.68;0.38;;;;;;;14.51;100.00;101943.13;5054123;28;20083;-68
2022/07/16 02:14:59;;;;;;;3.63;0.40;;;;;;;14.45;100.00;101938.41;5043275;28;20053;-68
2022/07/16 02:17:25;;;;;;;0.65;0.40;;;;;;;14.39;100.00;101940.66;5047119;28;20028;-68
2022/07/16 02:19:50;;;;;;;0.50;0.28;;;;;;;14.33;100.00;101941.25;5043269;28;20025;-68
2022/07/16 02:22:16;;;;;;;2.15;0.47;;;;;;;14.25;100.00;101930.53;5048016;28;20039;-68
2022/07/16 02:24:42;;;;;;;0.60;0.35;;;;;;;14.27;100.00;101944.50;5030149;28;20497;-68
2022/07/16 02:27:07;;;;;;;0.50;0.30;;;;;;;14.29;100.00;101941.72;5037306;28;20029;-68
2022/07/16 02:29:33;;;;;;;0.57;0.40;;;;;;;14.26;100.00;101945.47;5046847;28;20028;-69
2022/07/16 02:31:58;;;;;;;0.98;0.40;;;;;;;14.24;100.00;101947.47;5042439;28;20051;-69
2022/07/16 02:34:23;;;;;;;0.20;0.10;;;;;;;14.21;100.00;101947.75;5044475;28;20120;-69
2022/07/16 02:36:49;;;;;;;2.15;0.20;;;;;;;14.21;100.00;101953.03;5047516;28;20033;-70
2022/07/16 02:39:14;;;;;;;2.95;0.55;;;;;;;14.20;99.80;101951.38;5045286;28;20025;-69
2022/07/16 02:41:39;;;;;;;0.30;0.20;;;;;;;14.13;100.00;101950.28;5045564;28;20037;-68
2022/07/16 02:44:05;;;;;;;0.60;0.40;;;;;;;14.14;100.00;101946.66;5047843;28;20026;-69
2022/07/16 02:46:30;;;;;;;1.13;0.45;;;;;;;14.13;100.00;101955.59;5043779;28;20065;-70
2022/07/16 02:48:56;;;;;;;1.65;0.43;;;;;;;14.01;100.00;101943.50;5046089;28;20030;-69
2022/07/16 02:51:21;;;;;;;1.80;0.73;;;;;;;14.07;100.00;101961.50;5048182;28;20155;-69
2022/07/16 02:53:46;;;;;;;0.45;0.28;;;;;;;14.04;100.00;101959.97;5044554;28;20067;-69
2022/07/16 02:56:12;;;;;;;0.60;0.32;;;;;;;14.00;100.00;101953.25;5043340;28;20029;-69
2022/07/16 02:58:37;;;;;;;1.08;0.45;;;;;;;13.98;100.00;101961.38;5046768;28;20049;-69
2022/07/16 03:01:04;;;;;;;1.65;0.30;;;;;;;13.97;100.00;101961.53;5047771;28;20071;-69
2022/07/16 03:03:29;;;;;;;0.55;0.55;;;;;;;13.91;100.00;101956.78;5048658;28;20056;-69
2022/07/16 03:05:55;;;;;;;0.60;0.32;;;;;;;13.74;100.00;101931.84;5044085;28;20029;-69
2022/07/16 03:08:20;;;;;;;0.52;0.38;;;;;;;13.87;100.00;101958.91;5046322;28;20032;-69
2022/07/16 03:10:46;;;;;;;0.98;0.40;;;;;;;13.87;100.00;101964.22;5045891;28;20036;-69
2022/07/16 03:13:11;;;;;;;1.73;0.43;;;;;;;13.88;100.00;101967.72;5045397;28;20029;-69
2022/07/16 03:15:37;;;;;;;1.75;0.57;;;;;;;13.85;100.00;101958.22;5043593;28;20037;-69
2022/07/16 03:18:02;;;;;;;0.63;0.32;;;;;;;13.82;100.00;101962.97;5043969;28;20021;-68
2022/07/16 03:20:28;;;;;;;0.82;0.45;;;;;;;13.78;100.00;101957.09;5047728;28;20032;-68
2022/07/16 03:22:53;;;;;;;0.47;0.40;;;;;;;13.74;100.00;101966.31;5051760;28;20457;-68
2022/07/16 03:25:19;;;;;;;2.00;0.17;;;;;;;13.63;100.00;101961.19;5045676;28;20033;-67
2022/07/16 03:27:45;;;;;;;0.93;0.55;;;;;;;13.70;100.00;101975.59;5048038;28;20025;-70
2022/07/16 03:30:12;;;;;;;0.60;0.43;;;;;;;13.67;100.00;101971.38;5043414;28;20032;-68
2022/07/16 03:32:37;;;;;;;0.50;0.40;;;;;;;13.71;100.00;101971.94;5046282;28;20032;-69
2022/07/16 03:35:07;;;;;;;1.13;0.52;;;;;;;13.66;100.00;101958.28;5045302;28;20030;-69
2022/07/16 03:37:33;;;;;;;8.68;0.60;;;;;;;13.71;100.00;101979.91;5046624;28;20116;-69
2022/07/16 03:39:59;;;;;;;0.60;0.60;;;;;;;13.71;100.00;101983.38;5034240;28;20512;-68
2022/07/16 03:42:25;;;;;;;0.73;0.38;;;;;;;13.70;100.00;101978.22;5049435;28;20072;-69
2022/07/16 03:44:50;;;;;;;0.90;0.63;;;;;;;13.73;100.00;101991.19;5051459;28;20040;-69
2022/07/16 03:47:15;;;;;;;2.47;0.63;;;;;;;13.75;100.00;101990.06;5048445;28;20041;-69
2022/07/16 03:49:41;;;;;;;0.52;0.45;;;;;;;13.79;100.00;101993.28;5046126;28;20108;-69
2022/07/16 03:52:06;;;;;;;0.52;0.40;;;;;;;13.82;100.00;101994.81;5049367;28;20044;-69
2022/07/16 03:54:31;;;;;;;1.45;0.52;;;;;;;13.84;100.00;102006.13;5047580;28;20030;-69
2022/07/16 03:56:57;;;;;;;0.85;0.40;;;;;;;13.89;100.00;102001.22;5046755;28;20088;-69
2022/07/16 03:59:22;;;;;;;0.95;0.55;;;;;;;13.78;100.00;101986.28;5047370;28;20509;-69
2022/07/16 04:01:48;;;;;;;0.68;0.40;;;;;;;13.91;100.00;102005.38;5044698;28;20100;-69
2022/07/16 04:04:13;;;;;;;0.60;0.38;;;;;;;13.93;100.00;102008.75;5048845;28;20029;-69
2022/07/16 04:06:38;;;;;;;1.48;0.68;;;;;;;13.94;100.00;102010.44;5048141;28;20041;-69
2022/07/16 04:09:04;;;;;;;2.33;0.30;;;;;;;13.95;100.00;102011.25;5044036;28;20019;-69
2022/07/16 04:11:29;;;;;;;0.50;0.40;;;;;;;13.92;100.00;102017.69;5050966;28;20060;-69
2022/07/16 04:13:54;;;;;;;4.15;0.55;;;;;;;13.92;100.00;102028.31;5049033;28;20033;-69
2022/07/16 04:16:20;;;;;;;1.13;0.40;;;;;;;13.87;100.00;102019.09;5035661;28;20338;-68
2022/07/16 04:18:46;;;;;;;0.82;0.45;;;;;;;13.82;100.00;102000.13;5037858;28;20071;-68
2022/07/16 04:21:11;;;;;;;2.20;0.82;;;;;;;13.90;100.00;102022.31;5039694;28;20029;-68
2022/07/16 04:23:37;;;;;;;5.90;0.50;;;;;;;13.90;100.00;102024.97;5039945;28;20067;-68
2022/07/16 04:26:03;;;;;;;1.23;0.85;;;;;;;13.93;100.00;102031.78;5039928;28;20027;-67
2022/07/16 04:28:28;;;;;;;0.20;0.13;;;;;;;13.92;100.00;102033.63;5040731;28;20013;-67
2022/07/16 04:30:54;;;;;;;0.40;0.30;;;;;;;13.96;100.00;102029.69;5041977;28;20025;-67
2022/07/16 04:33:20;;;;;;;1.63;0.40;;;;;;;14.03;100.00;102035.28;5039088;28;20443;-68
2022/07/16 04:35:45;;;;;;;2.58;0.50;;;;;;;14.03;100.00;102037.09;5037544;28;20033;-68
2022/07/16 04:38:11;;;;;;;0.40;0.35;;;;;;;14.03;100.00;102037.94;5042269;28;20029;-68
2022/07/16 04:40:36;;;;;;;0.55;0.35;;;;;;;14.05;100.00;102048.41;5041645;28;20495;-68
2022/07/16 04:43:01;;;;;;;1.75;0.43;;;;;;;14.05;98.91;102049.25;5037808;28;20120;-68
2022/07/16 04:45:27;;;;;;;1.02;0.20;;;;;;;13.98;97.76;102043.66;5041138;28;20032;-68
2022/07/16 04:47:52;;;;;;;2.10;0.68;;;;;;;13.96;97.87;102058.06;5039477;28;20033;-68
2022/07/16 04:50:18;;;;;;;2.63;1.10;;;;;;;13.97;97.97;102057.91;5035975;28;20025;-69
2022/07/16 04:52:43;;;;;;;4.15;0.40;;;;;;;14.01;98.60;102057.63;5036073;28;20030;-68
2022/07/16 04:55:09;;;;;;;0.75;0.40;;;;;;;14.01;98.25;102066.44;5036887;28;20043;-68
2022/07/16 04:57:34;;;;;;;2.88;1.08;;;;;;;14.07;97.19;102065.88;5032372;28;20025;-68
2022/07/16 04:59:59;;;;;;;1.98;0.65;;;;;;;14.19;96.58;102069.19;5037243;28;20179;-68
2022/07/16 05:05:09;;;;;;;0.70;0.40;;;;;;;14.31;94.95;102070.69;5035633;28;20136;-68
2022/07/16 05:07:35;;;;;;;0.35;0.20;;;;;;;14.21;95.37;102064.56;5037496;28;20061;-68
2022/07/16 05:10:01;;;;;;;0.20;0.20;;;;;;;14.31;95.52;102089.28;5036157;28;20100;-68
2022/07/16 05:12:26;;;;;;;2.38;0.70;;;;;;;14.31;95.53;102094.59;5035322;28;20135;-68
2022/07/16 05:14:52;;;;;;;0.35;0.35;;;;;;;14.43;95.09;102102.38;5035708;28;20029;-68
2022/07/16 05:17:17;;;;;;;2.53;0.40;;;;;;;14.60;94.33;102101.66;5039044;28;20062;-68
2022/07/16 05:19:42;;;;;;;0.50;0.50;;;;;;;14.71;92.10;102106.78;5038404;28;20045;-68
2022/07/16 05:22:08;;;;;;;0.63;0.55;;;;;;;14.79;90.12;102104.22;5033632;28;20114;-68
2022/07/16 05:24:34;;;;;;;0.85;0.40;;;;;;;14.71;88.75;102082.84;5038933;28;20096;-68
2022/07/16 05:26:59;;;;;;;0.50;0.30;;;;;;;14.91;88.03;102106.69;5037416;28;20017;-67
2022/07/16 05:29:25;;;;;;;0.40;0.15;;;;;;;15.15;88.32;102116.78;5035731;28;20447;-68
2022/07/16 05:31:50;;;;;;;0.50;0.20;;;;;;;15.38;87.40;102114.53;5039637;28;20040;-68
2022/07/16 05:34:16;;;;;;;2.00;0.38;;;;;;;15.54;87.31;102122.66;5034616;28;20102;-68
2022/07/16 05:36:41;;;;;;;6.15;0.98;;;;;;;15.67;86.93;102126.78;5035407;28;20131;-69
2022/07/16 05:39:07;;;;;;;4.13;0.55;;;;;;;15.86;85.39;102124.00;5043215;28;20026;-68
2022/07/16 05:41:32;;;;;;;3.33;0.60;;;;;;;16.13;84.20;102116.88;5033288;28;20029;-68
2022/07/16 05:43:57;;;;;;;0.70;0.40;;;;;;;16.37;82.79;102125.00;5035778;28;20037;-68
2022/07/16 05:46:23;;;;;;;3.15;0.82;;;;;;;16.35;81.48;102131.50;5034133;28;20029;-68
2022/07/16 05:48:49;;;;;;;3.33;0.52;;;;;;;16.29;79.96;102132.13;5037568;28;20036;-68
2022/07/16 05:51:14;;;;;;;0.63;0.20;;;;;;;16.33;79.26;102133.47;5040872;28;20543;-68
2022/07/16 05:53:40;;;;;;;0.20;0.17;;;;;;;16.24;77.54;102133.47;5040661;28;20013;-70
2022/07/16 05:56:05;;;;;;;1.95;0.47;;;;;;;16.30;78.96;102150.63;5040713;28;20036;-69
2022/07/16 05:58:31;;;;;;;0.30;0.22;;;;;;;16.25;78.41;102155.59;5044623;28;20525;-69
2022/07/16 06:00:56;;;;;;;3.63;1.15;;;;;;;16.28;77.58;102154.44;5043628;28;20033;-69
2022/07/16 06:03:21;;;;;;;0.17;0.10;;;;;;;16.49;76.73;102159.41;5047153;28;20056;-69
2022/07/16 06:05:47;;;;;;;1.88;0.28;;;;;;;16.58;76.40;102166.47;5040626;28;20044;-69
2022/07/16 06:08:12;;;;;;;3.38;0.32;;;;;;;16.60;76.65;102169.81;5047556;28;20013;-69
2022/07/16 06:10:38;;;;;;;2.78;0.30;;;;;;;16.65;75.90;102165.66;5043546;28;20625;-69
2022/07/16 06:13:03;;;;;;;0.47;0.20;;;;;;;16.68;74.96;102164.53;5042964;28;20030;-72
2022/07/16 06:15:28;;;;;;;1.85;0.10;;;;;;;16.79;74.14;102171.44;5045166;28;20038;-69
2022/07/16 06:17:54;;;;;;;2.33;0.30;;;;;;;16.98;75.25;102165.03;5042316;28;20049;-69
2022/07/16 06:20:19;;;;;;;0.40;0.40;;;;;;;17.05;73.21;102166.09;5041789;28;20044;-69
2022/07/16 06:22:45;;;;;;;0.30;0.22;;;;;;;17.10;73.15;102163.75;5039275;28;20048;-69
2022/07/16 06:25:10;;;;;;;1.05;0.63;;;;;;;17.09;71.50;102179.91;5039269;28;20422;-70
2022/07/16 06:27:40;;;;;;;3.22;0.25;;;;;;;17.24;72.24;102181.78;5037296;28;20032;-69
2022/07/16 06:30:06;;;;;;;1.20;0.30;;;;;;;17.39;72.54;102183.84;5039030;28;20053;-69
2022/07/16 06:32:32;;;;;;;1.88;0.30;;;;;;;17.59;72.71;102190.56;5034192;28;20567;-69
2022/07/16 06:34:57;;;;;;;1.02;0.30;;;;;;;17.86;70.01;102191.34;5032758;28;20040;-68
2022/07/16 06:37:22;;;;;;;0.60;0.43;;;;;;;18.05;67.87;102190.16;5033644;28;20091;-68
2022/07/16 06:39:48;;;;;;;0.75;0.10;;;;;;;18.01;66.51;102205.72;5035220;28;20032;-68
2022/07/16 06:42:13;;;;;;;0.10;0.10;;;;;;;18.08;66.23;102193.34;5036307;28;20025;-68
2022/07/16 06:44:40;;;;;;;0.68;0.22;;;;;;;18.56;65.33;102195.31;5038173;28;20022;-68
2022/07/16 06:47:06;;;;;;;0.80;0.75;;;;;;;19.04;64.75;102198.91;5040216;28;20025;-70
2022/07/16 06:49:31;;;;;;;0.68;0.28;;;;;;;19.71;64.26;102211.81;5033218;28;20035;-70
2022/07/16 06:51:56;;;;;;;0.93;0.10;;;;;;;20.02;62.12;102211.75;5042008;28;20025;-69
2022/07/16 06:54:22;;;;;;;1.40;0.20;;;;;;;20.21;60.66;102209.56;5016207;28;20044;-70
2022/07/16 06:56:48;;;;;;;1.33;0.32;;;;;;;20.32;59.37;102220.72;5035306;28;20429;-70
2022/07/16 06:59:13;;;;;;;5.45;0.30;;;;;;;20.20;60.72;102218.66;5033784;28;20060;-70
2022/07/16 07:01:38;;;;;;;0.73;0.10;;;;;;;20.46;60.21;102221.75;5034618;28;20064;-70
2022/07/16 07:04:04;;;;;;;1.45;0.57;;;;;;;21.11;61.18;102224.78;5034223;28;20325;-70
2022/07/16 07:06:30;;;;;;;2.20;0.35;;;;;;;21.49;57.78;102232.72;5039868;28;20033;-70
2022/07/16 07:08:55;;;;;;;2.50;0.30;;;;;;;21.87;56.50;102221.78;5031879;28;20021;-70
2022/07/16 07:11:20;;;;;;;3.05;0.50;;;;;;;22.15;55.76;102237.97;5039834;28;20156;-69
2022/07/16 07:13:46;;;;;;;2.35;0.52;;;;;;;22.29;56.12;102242.44;5038015;28;20051;-69
2022/07/16 07:16:11;;;;;;;2.40;0.43;;;;;;;22.32;54.69;102242.06;5020097;28;20037;-69
2022/07/16 07:18:36;;;;;;;0.95;0.28;;;;;;;22.31;53.08;102244.94;5038273;28;20492;-69
2022/07/16 07:21:02;;;;;;;0.98;0.30;;;;;;;22.48;54.97;102246.34;5040267;28;20035;-70
2022/07/16 07:23:28;;;;;;;1.65;0.20;;;;;;;22.82;54.76;102255.50;5040607;28;20385;-70
2022/07/16 07:25:54;;;;;;;1.75;0.45;;;;;;;23.19;53.01;102254.28;5045242;28;20033;-71
2022/07/16 07:28:19;;;;;;;1.13;0.50;;;;;;;22.82;54.56;102252.78;5044141;28;20040;-70
2022/07/16 07:30:45;;;;;;;5.72;0.90;;;;;;;22.49;54.32;102256.06;5044175;28;20389;-70
2022/07/16 07:33:10;;;;;;;3.70;0.32;;;;;;;22.13;54.25;102267.72;5044745;28;20064;-70
2022/07/16 07:35:36;;;;;;;0.68;0.30;;;;;;;21.65;56.59;102259.38;5040301;28;20036;-70
2022/07/16 07:38:01;;;;;;;0.35;0.15;;;;;;;21.07;57.66;102263.75;5042792;28;20022;-70
2022/07/16 07:40:27;;;;;;;1.27;0.30;;;;;;;20.79;57.39;102267.06;5040790;28;20033;-70
2022/07/16 07:42:54;;;;;;;1.17;0.57;;;;;;;20.48;58.60;102276.03;5042230;28;20083;-70
2022/07/16 07:45:19;;;;;;;1.25;0.30;;;;;;;19.93;60.18;102277.97;5042868;28;20037;-70
2022/07/16 07:47:45;;;;;;;0.85;0.20;;;;;;;19.79;61.37;102269.84;5036873;28;20536;-70
2022/07/16 07:50:10;;;;;;;2.90;0.60;;;;;;;19.73;62.50;102282.94;5037339;28;20034;-70
2022/07/16 07:52:36;;;;;;;0.38;0.17;;;;;;;19.62;61.74;102283.31;5042858;28;20112;-70
2022/07/16 07:55:02;;;;;;;0.15;0.03;;;;;;;19.69;63.00;102294.16;5039685;28;20036;-70
2022/07/16 07:57:28;;;;;;;1.58;0.38;;;;;;;19.86;63.58;102287.72;5042584;28;20029;-70
2022/07/16 07:59:53;;;;;;;0.90;0.47;;;;;;;19.92;63.30;102287.03;5038463;28;20052;-70
2022/07/16 08:02:18;;;;;;;1.25;0.43;;;;;;;19.90;62.95;102288.19;5037834;28;20082;-70
2022/07/16 08:04:44;;;;;;;1.05;0.73;;;;;;;19.73;64.10;102288.28;5010187;28;20244;-70
2022/07/16 08:07:09;;;;;;;2.10;0.25;;;;;;;19.41;64.29;102299.13;5034797;28;20030;-71
2022/07/16 08:09:35;;;;;;;0.90;0.47;;;;;;;19.36;65.62;102296.13;5039255;28;20021;-70
2022/07/16 08:12:02;;;;;;;0.40;0.30;;;;;;;19.68;64.58;102300.50;5037695;28;20033;-70
2022/07/16 08:14:27;;;;;;;1.25;0.55;;;;;;;20.01;63.62;102306.56;5041807;28;20572;-70
2022/07/16 08:16:52;;;;;;;1.60;0.20;;;;;;;20.89;63.04;102304.38;5043101;28;20143;-69
2022/07/16 08:19:18;;;;;;;2.95;0.80;;;;;;;22.28;58.87;102299.13;5039942;28;20734;-71
2022/07/16 08:21:43;;;;;;;0.98;0.10;;;;;;;23.49;56.01;102298.94;5036949;28;20033;-70
2022/07/16 08:26:52;;;;;;;2.42;0.47;;;;;;;24.68;52.81;102317.28;5034774;28;20048;-70
2022/07/16 08:29:18;;;;;;;0.90;0.40;;;;;;;25.45;51.64;102307.56;5032807;28;20022;-70
2022/07/16 08:31:43;;;;;;;1.63;0.40;;;;;;;24.99;52.75;102324.72;5038272;28;20059;-70
2022/07/16 08:34:09;;;;;;;6.22;0.68;;;;;;;24.72;51.09;102323.13;5032115;28;20018;-70
2022/07/16 08:36:34;;;;;;;1.98;0.38;;;;;;;24.17;51.75;102318.69;5037182;28;20033;-71
2022/07/16 08:38:59;;;;;;;2.15;0.47;;;;;;;23.73;53.09;102319.97;5039947;28;20109;-70
2022/07/16 08:41:26;;;;;;;0.75;0.35;;;;;;;23.29;54.16;102325.78;5043935;28;20068;-70
2022/07/16 08:43:52;;;;;;;1.73;0.50;;;;;;;23.14;54.23;102333.97;5048974;28;20466;-70
2022/07/16 08:46:21;;;;;;;0.57;0.28;;;;;;;23.86;52.65;102319.22;5040546;28;20038;-69
2022/07/16 08:48:48;;;;;;;2.83;0.60;;;;;;;23.98;52.34;102327.56;5041481;28;20043;-70
2022/07/16 08:51:18;;;;;;;1.40;0.30;;;;;;;23.90;52.52;102341.22;5043011;28;20029;-70
2022/07/16 08:53:45;;;;;;;1.05;0.35;;;;;;;24.01;53.47;102321.75;5042093;28;20028;-70
2022/07/16 08:56:10;;;;;;;1.65;0.70;;;;;;;24.33;52.52;102340.91;5040717;28;20021;-70
2022/07/16 08:58:36;;;;;;;2.10;0.55;;;;;;;24.48;52.35;102338.03;5042699;28;20049;-70
2022/07/16 09:01:02;;;;;;;1.02;0.30;;;;;;;25.61;51.54;102354.13;5035954;28;20036;-70
2022/07/16 09:03:27;;;;;;;2.47;0.40;;;;;;;25.38;48.80;102344.63;5043804;28;20036;-70
2022/07/16 09:05:52;;;;;;;3.50;0.93;;;;;;;25.76;49.44;102351.97;5040417;28;20025;-70
2022/07/16 09:08:19;;;;;;;0.93;0.50;;;;;;;25.56;49.41;102351.22;5039547;28;20033;-70
2022/07/16 09:10:44;;;;;;;0.70;0.28;;;;;;;24.80;49.29;102363.38;5041914;28;20025;-71
2022/07/16 09:13:10;;;;;;;0.77;0.30;;;;;;;24.11;49.79;102369.91;5038981;28;20040;-71
2022/07/16 09:15:38;;;;;;;4.90;0.55;;;;;;;25.39;49.49;102367.06;5041999;28;20021;-71
2022/07/16 09:18:14;;;;;;;2.47;0.25;;;;;;;25.80;46.61;102374.81;5041494;28;20036;-71
2022/07/16 09:20:44;;;;;;;0.20;0.15;;;;;;;25.73;46.93;102379.44;5039787;28;20280;-71
2022/07/16 09:23:27;;;;;;;1.90;0.30;;;;;;;26.23;45.71;102374.19;5044490;28;20521;-71
2022/07/16 09:25:58;;;;;;;0.95;0.40;;;;;;;27.15;44.63;102381.00;5046166;28;20055;-69
2022/07/16 09:28:26;;;;;;;1.30;0.30;;;;;;;27.79;43.79;102387.81;5032899;28;20057;-69
2022/07/16 09:30:52;;;;;;;1.55;0.30;;;;;;;28.08;43.03;102388.09;5028711;28;20032;-69
2022/07/16 09:33:23;;;;;;;3.13;0.65;;;;;;;28.36;42.44;102382.03;5033959;28;20025;-69
2022/07/16 09:36:04;;;;;;;1.55;0.30;;;;;;;28.89;42.22;102392.06;5030206;28;20025;-69
2022/07/16 09:38:29;;;;;;;1.15;0.40;;;;;;;29.59;41.29;102400.41;5034766;28;20013;-69
2022/07/16 09:40:54;;;;;;;0.93;0.30;;;;;;;30.03;41.09;102393.44;5036703;28;20854;-69
2022/07/16 09:43:22;;;;;;;6.68;0.40;;;;;;;30.42;40.61;102404.53;5032808;28;20029;-69
2022/07/16 09:45:55;;;;;;;2.35;0.20;;;;;;;29.06;43.05;102411.22;5034638;28;20032;-69
2022/07/16 09:48:21;;;;;;;1.17;0.30;;;;;;;27.80;44.74;102408.44;5030782;28;20029;-69
2022/07/16 09:50:46;;;;;;;3.13;0.52;;;;;;;26.61;46.52;102403.16;5041378;28;20075;-69
2022/07/16 09:53:16;;;;;;;4.05;0.90;;;;;;;25.82;47.17;102399.75;5032183;28;20039;-69
2022/07/16 09:56:03;;;;;;;0.30;0.20;;;;;;;25.09;48.99;102413.44;5041817;28;20033;-69
2022/07/16 09:58:30;;;;;;;0.40;0.30;;;;;;;25.11;49.83;102413.22;5037358;28;20176;-69
2022/07/16 10:00:56;;;;;;;0.28;0.15;;;;;;;24.92;49.98;102417.59;5041161;28;20492;-69
2022/07/16 10:03:22;;;;;;;0.63;0.30;;;;;;;24.88;50.30;102414.47;5036021;28;20041;-69
2022/07/16 10:05:47;;;;;;;0.95;0.40;;;;;;;25.71;48.16;102416.66;5037180;28;20390;-69
2022/07/16 10:08:14;;;;;;;3.78;0.43;;;;;;;25.74;46.84;102418.09;5032834;28;20025;-69
2022/07/16 10:10:39;;;;;;;3.42;0.55;;;;;;;25.77;48.85;102418.50;5034604;28;20566;-69
2022/07/16 10:13:05;;;;;;;1.45;0.57;;;;;;;25.58;49.26;102428.34;5034232;28;20057;-69
2022/07/16 10:15:30;;;;;;;1.50;0.40;;;;;;;25.01;50.08;102429.84;5037065;28;20051;-71
2022/07/16 10:17:56;;;;;;;5.90;0.68;;;;;;;24.67;50.06;102433.56;5039829;28;20108;-69
2022/07/16 10:20:21;;;;;;;5.32;0.90;;;;;;;24.30;51.00;102428.50;5033806;28;20044;-69
2022/07/16 10:22:49;;;;;;;1.13;0.22;;;;;;;24.34;51.18;102418.09;5033015;28;20059;-69
2022/07/16 10:25:19;;;;;;;1.55;0.50;;;;;;;25.30;49.18;102420.50;5033835;28;20233;-69
2022/07/16 10:27:45;;;;;;;3.35;0.28;;;;;;;26.10;48.20;102427.56;5035170;28;20025;-69
2022/07/16 10:30:22;;;;;;;0.57;0.25;;;;;;;26.13;47.89;102437.94;5037004;28;20037;-69
2022/07/16 10:33:00;;;;;;;4.40;0.85;;;;;;;26.21;47.96;102445.84;5034101;28;20036;-69
2022/07/16 10:35:28;;;;;;;5.75;0.55;;;;;;;25.84;48.34;102442.84;5031990;28;20063;-69
2022/07/16 10:38:14;;;;;;;1.92;0.65;;;;;;;25.33;49.04;102446.28;5033452;28;20136;-69
2022/07/16 10:40:42;;;;;;;1.45;0.40;;;;;;;25.93;46.56;102454.28;5032882;28;20056;-69
2022/07/16 10:43:11;;;;;;;2.63;0.63;;;;;;;27.19;45.51;102458.09;5035267;28;20032;-69
2022/07/16 10:45:49;;;;;;;0.25;0.10;;;;;;;27.60;44.79;102454.78;5038163;28;20570;-69
2022/07/16 10:48:14;;;;;;;1.35;0.73;;;;;;;28.45;43.78;102461.28;5032999;28;20462;-69
2022/07/16 10:50:40;;;;;;;3.03;0.77;;;;;;;28.98;43.36;102460.47;5032879;28;20092;-69
2022/07/16 10:53:05;;;;;;;0.65;0.30;;;;;;;28.05;41.53;102454.50;5038981;28;20081;-69
2022/07/16 10:55:36;;;;;;;2.58;0.30;;;;;;;27.62;43.82;102449.97;5042516;28;20029;-69
2022/07/16 10:58:03;;;;;;;2.55;0.68;;;;;;;28.50;42.23;102459.56;5040362;28;20030;-69
2022/07/16 11:00:28;;;;;;;1.48;0.40;;;;;;;28.49;41.74;102468.78;5039533;28;20053;-69
2022/07/16 11:03:00;;;;;;;4.03;0.40;;;;;;;28.10;42.52;102456.53;5040792;28;20044;-69
2022/07/16 11:05:30;;;;;;;1.20;0.20;;;;;;;28.95;40.21;102471.84;5035972;28;20029;-69
2022/07/16 11:08:08;;;;;;;1.42;0.30;;;;;;;29.79;39.89;102479.81;5037773;28;20026;-69
2022/07/16 11:10:35;;;;;;;1.50;0.40;;;;;;;30.73;39.71;102475.91;5036098;28;20114;-70
2022/07/16 11:13:00;;;;;;;0.88;0.40;;;;;;;30.52;36.34;102480.16;5040678;28;20080;-69
2022/07/16 11:15:26;;;;;;;1.45;0.50;;;;;;;29.88;38.37;102482.97;5039664;28;20512;-69
2022/07/16 11:17:57;;;;;;;0.47;0.13;;;;;;;30.72;38.47;102468.78;5039062;28;20037;-69
2022/07/16 11:20:33;;;;;;;1.00;0.30;;;;;;;30.63;36.78;102487.44;5036965;28;20036;-69
2022/07/16 11:23:06;;;;;;;0.93;0.30;;;;;;;29.94;38.96;102479.25;5032633;28;20024;-69
2022/07/16 11:25:32;;;;;;;2.35;0.32;;;;;;;30.83;38.19;102480.69;5036297;28;20486;-69